createdAt,value
2023-06-13T20:58:53.303Z,31.95
2023-06-13T21:01:22.757Z,37.88
2023-06-13T21:03:51.238Z,32.58
2023-06-13T21:06:21.710Z,39.65
2023-06-13T21:08:50.321Z,36.30
2023-06-13T21:11:18.721Z,33.05
2023-06-13T21:13:47.475Z,27.42
2023-06-13T21:16:21.606Z,29.02
2023-06-13T21:18:51.385Z,24.25
2023-06-13T21:21:19.884Z,30.13
2023-06-13T21:23:48.382Z,23.58
2023-06-13T21:26:17.472Z,23.98
2023-06-13T21:28:46.053Z,37.03
2023-06-13T21:31:16.108Z,30.27
2023-06-13T21:33:44.771Z,37.88
2023-06-13T21:36:13.675Z,24.75
2023-06-13T21:38:42.138Z,27.00
2023-06-13T21:41:10.832Z,25.90
2023-06-13T21:43:39.195Z,25.67
2023-06-13T21:46:07.819Z,25.88
2023-06-13T21:48:36.410Z,24.77
2023-06-13T21:51:04.853Z,24.08
2023-06-13T21:53:33.433Z,30.52
2023-06-13T21:56:02.100Z,33.55
2023-06-13T21:58:30.917Z,34.10
2023-06-13T22:00:59.378Z,37.05
2023-06-13T22:03:28.996Z,35.70
2023-06-13T22:05:58.994Z,34.70
2023-06-13T22:08:28.687Z,36.35
2023-06-13T22:10:58.753Z,34.42
2023-06-13T22:13:27.078Z,30.33
2023-06-13T22:15:56.907Z,37.55
2023-06-13T22:18:25.709Z,35.13
2023-06-13T22:20:54.662Z,38.63
2023-06-13T22:23:23.223Z,34.05
2023-06-13T22:25:52.063Z,37.38
2023-06-13T22:28:31.831Z,39.30
2023-06-13T22:31:08.351Z,31.10
2023-06-13T22:33:36.764Z,37.33
2023-06-13T22:36:05.365Z,35.17
2023-06-13T22:38:33.810Z,36.53
2023-06-13T22:41:05.495Z,33.35
2023-06-13T22:43:33.964Z,32.83
2023-06-13T22:46:02.750Z,28.67
2023-06-13T22:48:33.747Z,23.92
2023-06-13T22:51:02.061Z,22.60
2023-06-13T22:53:30.631Z,20.23
2023-06-13T22:55:58.917Z,19.27
2023-06-13T22:58:27.921Z,20.33
2023-06-13T23:00:56.473Z,27.23
2023-06-13T23:03:24.880Z,21.45
2023-06-13T23:05:54.585Z,21.63
2023-06-13T23:08:23.101Z,20.52
2023-06-13T23:10:51.488Z,18.92
2023-06-13T23:13:23.189Z,20.48
2023-06-13T23:15:51.858Z,25.95
2023-06-13T23:18:21.191Z,19.45
2023-06-13T23:20:51.468Z,16.73
2023-06-13T23:23:19.897Z,18.40
2023-06-13T23:25:48.229Z,21.45
2023-06-13T23:28:18.819Z,30.05
2023-06-13T23:30:47.191Z,25.38
2023-06-13T23:33:15.687Z,26.00
2023-06-13T23:35:44.118Z,26.88
2023-06-13T23:38:17.530Z,22.67
2023-06-13T23:40:47.207Z,22.65
2023-06-13T23:43:15.786Z,20.52
2023-06-13T23:45:44.134Z,18.83
2023-06-13T23:48:12.610Z,21.98
2023-06-13T23:50:41.039Z,26.13
2023-06-13T23:53:10.367Z,20.05
2023-06-13T23:55:41.927Z,24.88
2023-06-13T23:58:11.960Z,23.42
